sensor_id;sensor_type;location;lat;lon;timestamp;pressure;altitude;pressure_sealevel;temperature;humidity
8890;BME280;4481;43.406;24.454;2022-08-02T00:02:19;75688.69;;;-144.09;76.76
8890;BME280;4481;43.406;24.454;2022-08-02T00:04:46;75674.06;;;-144.09;76.45
8890;BME280;4481;43.406;24.454;2022-08-02T00:07:13;75657.38;;;-144.09;76.18
8890;BME280;4481;43.406;24.454;2022-08-02T00:09:40;75665.72;;;-144.09;76.16
8890;BME280;4481;43.406;24.454;2022-08-02T00:12:07;75663.63;;;-144.09;76.02
8890;BME280;4481;43.406;24.454;2022-08-02T00:14:33;75657.38;;;-144.09;75.93
8890;BME280;4481;43.406;24.454;2022-08-02T00:17:00;75657.38;;;-144.09;75.92
8890;BME280;4481;43.406;24.454;2022-08-02T00:19:26;75651.09;;;-144.09;75.90
8890;BME280;4481;43.406;24.454;2022-08-02T00:21:53;75667.81;;;-144.09;76.42
8890;BME280;4481;43.406;24.454;2022-08-02T00:24:19;75665.72;;;-144.09;76.44
8890;BME280;4481;43.406;24.454;2022-08-02T00:26:45;75674.06;;;-144.09;76.55
8890;BME280;4481;43.406;24.454;2022-08-02T00:29:12;75669.91;;;-144.09;76.75
8890;BME280;4481;43.406;24.454;2022-08-02T00:31:38;75686.59;;;-144.09;77.29
8890;BME280;4481;43.406;24.454;2022-08-02T00:34:04;75688.69;;;-144.09;77.45
8890;BME280;4481;43.406;24.454;2022-08-02T00:36:30;75707.50;;;-144.09;77.75
8890;BME280;4481;43.406;24.454;2022-08-02T00:38:57;75694.97;;;-144.09;77.78
8890;BME280;4481;43.406;24.454;2022-08-02T00:41:24;75692.88;;;-144.09;77.89
8890;BME280;4481;43.406;24.454;2022-08-02T00:43:51;75688.69;;;-144.09;77.89
8890;BME280;4481;43.406;24.454;2022-08-02T00:46:18;75694.97;;;-144.09;78.16
8890;BME280;4481;43.406;24.454;2022-08-02T00:48:45;75699.16;;;-144.09;78.47
8890;BME280;4481;43.406;24.454;2022-08-02T00:51:12;75682.44;;;-144.09;78.14
8890;BME280;4481;43.406;24.454;2022-08-02T00:53:38;75680.34;;;-144.09;78.22
8890;BME280;4481;43.406;24.454;2022-08-02T00:56:05;75697.06;;;-144.09;78.44
8890;BME280;4481;43.406;24.454;2022-08-02T00:58:31;75699.16;;;-144.09;78.41
8890;BME280;4481;43.406;24.454;2022-08-02T01:00:58;75697.06;;;-144.09;78.38
8890;BME280;4481;43.406;24.454;2022-08-02T01:03:26;75703.31;;;-144.09;78.29
8890;BME280;4481;43.406;24.454;2022-08-02T01:05:52;75709.59;;;-144.09;78.31
8890;BME280;4481;43.406;24.454;2022-08-02T01:08:18;75713.78;;;-144.09;78.41
8890;BME280;4481;43.406;24.454;2022-08-02T01:10:45;75724.22;;;-144.09;78.60
8890;BME280;4481;43.406;24.454;2022-08-02T01:13:11;75703.31;;;-144.09;78.37
8890;BME280;4481;43.406;24.454;2022-08-02T01:15:44;75709.59;;;-144.09;78.42
8890;BME280;4481;43.406;24.454;2022-08-02T01:18:18;75740.94;;;-144.09;79.09
8890;BME280;4481;43.406;24.454;2022-08-02T01:21:09;75751.38;;;-144.09;79.46
8890;BME280;4481;43.406;24.454;2022-08-02T01:24:00;75749.28;;;-144.09;79.34
8890;BME280;4481;43.406;24.454;2022-08-02T01:26:38;75715.84;;;-144.09;78.35
8890;BME280;4481;43.406;24.454;2022-08-02T01:29:09;75715.84;;;-144.09;78.36
8890;BME280;4481;43.406;24.454;2022-08-02T01:31:43;75720.03;;;-144.09;78.42
8890;BME280;4481;43.406;24.454;2022-08-02T01:34:14;75726.31;;;-144.09;78.66
8890;BME280;4481;43.406;24.454;2022-08-02T01:36:45;75724.22;;;-144.09;78.55
8890;BME280;4481;43.406;24.454;2022-08-02T01:39:17;75720.03;;;-144.09;78.44
8890;BME280;4481;43.406;24.454;2022-08-02T01:41:46;75715.84;;;-144.09;78.38
8890;BME280;4481;43.406;24.454;2022-08-02T01:44:15;75724.22;;;-144.09;78.43
8890;BME280;4481;43.406;24.454;2022-08-02T01:46:45;75713.78;;;-144.09;78.41
8890;BME280;4481;43.406;24.454;2022-08-02T01:49:16;75728.38;;;-144.09;78.51
8890;BME280;4481;43.406;24.454;2022-08-02T01:51:44;75724.22;;;-144.09;78.82
8890;BME280;4481;43.406;24.454;2022-08-02T01:54:31;75711.69;;;-144.09;78.32
8890;BME280;4481;43.406;24.454;2022-08-02T01:56:58;75728.38;;;-144.09;78.33
8890;BME280;4481;43.406;24.454;2022-08-02T01:59:29;75740.94;;;-144.09;79.06
8890;BME280;4481;43.406;24.454;2022-08-02T02:01:57;75728.38;;;-144.09;79.10
8890;BME280;4481;43.406;24.454;2022-08-02T02:04:25;75749.28;;;-144.09;79.50
8890;BME280;4481;43.406;24.454;2022-08-02T02:06:55;75768.09;;;-144.09;80.02
8890;BME280;4481;43.406;24.454;2022-08-02T02:09:25;75778.53;;;-144.09;80.64
8890;BME280;4481;43.406;24.454;2022-08-02T02:11:53;75782.72;;;-144.09;80.88
8890;BME280;4481;43.406;24.454;2022-08-02T02:14:21;75772.25;;;-144.09;80.91
8890;BME280;4481;43.406;24.454;2022-08-02T02:16:50;75757.63;;;-144.09;80.56
8890;BME280;4481;43.406;24.454;2022-08-02T02:19:18;75753.47;;;-144.09;80.42
8890;BME280;4481;43.406;24.454;2022-08-02T02:21:45;75763.91;;;-144.09;80.87
8890;BME280;4481;43.406;24.454;2022-08-02T02:24:11;75770.16;;;-144.09;80.91
8890;BME280;4481;43.406;24.454;2022-08-02T02:26:38;75799.41;;;-144.09;81.47
8890;BME280;4481;43.406;24.454;2022-08-02T02:29:08;75807.78;;;-144.09;81.80
8890;BME280;4481;43.406;24.454;2022-08-02T02:31:38;75822.41;;;-144.09;82.14
8890;BME280;4481;43.406;24.454;2022-08-02T02:34:08;75828.66;;;-144.09;82.55
8890;BME280;4481;43.406;24.454;2022-08-02T02:36:37;75849.56;;;-144.09;82.87
8890;BME280;4481;43.406;24.454;2022-08-02T02:39:06;75874.63;;;-144.09;83.54
8890;BME280;4481;43.406;24.454;2022-08-02T02:41:33;75864.19;;;-144.09;83.40
8890;BME280;4481;43.406;24.454;2022-08-02T02:44:01;75864.19;;;-144.09;83.33
8890;BME280;4481;43.406;24.454;2022-08-02T02:46:29;75870.44;;;-144.09;83.36
8890;BME280;4481;43.406;24.454;2022-08-02T02:48:56;75853.72;;;-144.09;82.87
8890;BME280;4481;43.406;24.454;2022-08-02T02:51:24;75860.00;;;-144.09;82.80
8890;BME280;4481;43.406;24.454;2022-08-02T02:53:51;75876.72;;;-144.09;83.11
8890;BME280;4481;43.406;24.454;2022-08-02T02:56:18;75855.81;;;-144.09;82.79
8890;BME280;4481;43.406;24.454;2022-08-02T02:58:46;75874.63;;;-144.09;83.14
8890;BME280;4481;43.406;24.454;2022-08-02T03:01:13;75885.06;;;-144.09;83.33
8890;BME280;4481;43.406;24.454;2022-08-02T03:03:53;75912.22;;;-144.09;83.99
8890;BME280;4481;43.406;24.454;2022-08-02T03:06:19;75926.84;;;-144.09;84.22
8890;BME280;4481;43.406;24.454;2022-08-02T03:08:46;75937.31;;;-144.09;84.58
8890;BME280;4481;43.406;24.454;2022-08-02T03:11:13;75935.22;;;-144.09;84.58
8890;BME280;4481;43.406;24.454;2022-08-02T03:13:40;75941.47;;;-144.09;84.57
8890;BME280;4481;43.406;24.454;2022-08-02T03:16:07;75949.84;;;-144.09;84.81
8890;BME280;4481;43.406;24.454;2022-08-02T03:18:34;75945.66;;;-144.09;84.40
8890;BME280;4481;43.406;24.454;2022-08-02T03:21:02;75979.09;;;-144.09;85.34
8890;BME280;4481;43.406;24.454;2022-08-02T03:23:29;75968.63;;;-144.09;85.28
8890;BME280;4481;43.406;24.454;2022-08-02T03:25:56;75968.63;;;-144.09;85.42
8890;BME280;4481;43.406;24.454;2022-08-02T03:28:23;75958.19;;;-144.09;84.97
8890;BME280;4481;43.406;24.454;2022-08-02T03:30:49;75958.19;;;-144.09;84.83
8890;BME280;4481;43.406;24.454;2022-08-02T03:33:16;75964.47;;;-144.09;84.82
8890;BME280;4481;43.406;24.454;2022-08-02T03:35:44;75958.19;;;-144.09;84.97
8890;BME280;4481;43.406;24.454;2022-08-02T03:38:12;75977.00;;;-144.09;85.17
8890;BME280;4481;43.406;24.454;2022-08-02T03:40:42;75997.88;;;-144.09;85.82
8890;BME280;4481;43.406;24.454;2022-08-02T03:43:10;75995.81;;;-144.09;85.79
8890;BME280;4481;43.406;24.454;2022-08-02T03:45:38;75991.63;;;-144.09;85.29
8890;BME280;4481;43.406;24.454;2022-08-02T03:48:05;75995.81;;;-144.09;85.47
8890;BME280;4481;43.406;24.454;2022-08-02T03:50:32;76004.16;;;-144.09;85.72
8890;BME280;4481;43.406;24.454;2022-08-02T03:53:00;75995.81;;;-144.09;85.33
8890;BME280;4481;43.406;24.454;2022-08-02T03:55:26;76004.16;;;-144.09;85.54
8890;BME280;4481;43.406;24.454;2022-08-02T03:57:53;75987.44;;;-144.09;85.00
8890;BME280;4481;43.406;24.454;2022-08-02T04:00:21;75987.44;;;-144.09;85.08
8890;BME280;4481;43.406;24.454;2022-08-02T04:02:48;75981.19;;;-144.09;84.95
8890;BME280;4481;43.406;24.454;2022-08-02T04:05:15;75968.63;;;-144.09;84.50
8890;BME280;4481;43.406;24.454;2022-08-02T04:07:41;75962.38;;;-144.09;84.12
8890;BME280;4481;43.406;24.454;2022-08-02T04:10:09;75954.00;;;-144.09;84.27
8890;BME280;4481;43.406;24.454;2022-08-02T04:12:35;75943.56;;;-144.09;83.79
8890;BME280;4481;43.406;24.454;2022-08-02T04:15:03;75935.22;;;-144.09;83.46
8890;BME280;4481;43.406;24.454;2022-08-02T04:17:32;75924.78;;;-144.09;83.46
8890;BME280;4481;43.406;24.454;2022-08-02T04:20:04;75922.69;;;-144.09;83.52
8890;BME280;4481;43.406;24.454;2022-08-02T04:22:36;75916.41;;;-144.09;83.25
8890;BME280;4481;43.406;24.454;2022-08-02T04:25:06;75905.97;;;-144.09;83.17
8890;BME280;4481;43.406;24.454;2022-08-02T04:27:33;75891.34;;;-144.09;83.04
8890;BME280;4481;43.406;24.454;2022-08-02T04:30:02;75878.81;;;-144.09;82.65
8890;BME280;4481;43.406;24.454;2022-08-02T04:32:29;75860.00;;;-144.09;82.22
8890;BME280;4481;43.406;24.454;2022-08-02T04:34:56;75845.38;;;-144.09;81.61
8890;BME280;4481;43.406;24.454;2022-08-02T04:37:24;75832.84;;;-144.09;81.77
8890;BME280;4481;43.406;24.454;2022-08-02T04:39:50;75816.13;;;-144.09;81.34
8890;BME280;4481;43.406;24.454;2022-08-02T04:42:19;75780.63;;;-144.09;80.93
8890;BME280;4481;43.406;24.454;2022-08-02T04:44:46;75711.69;;;-144.09;79.28
8890;BME280;4481;43.406;24.454;2022-08-02T04:47:14;75615.59;;;-144.09;76.86
8890;BME280;4481;43.406;24.454;2022-08-02T04:49:40;75511.13;;;-144.09;74.18
8890;BME280;4481;43.406;24.454;2022-08-02T04:52:07;75423.41;;;-144.09;71.68
8890;BME280;4481;43.406;24.454;2022-08-02T04:54:33;75356.56;;;-144.09;69.97
8890;BME280;4481;43.406;24.454;2022-08-02T04:56:59;75321.06;;;-144.09;68.38
8890;BME280;4481;43.406;24.454;2022-08-02T04:59:26;75300.16;;;-144.09;68.00
8890;BME280;4481;43.406;24.454;2022-08-02T05:01:52;75295.97;;;-144.09;67.68
8890;BME280;4481;43.406;24.454;2022-08-02T05:04:18;75323.13;;;-144.09;67.29
8890;BME280;4481;43.406;24.454;2022-08-02T05:06:45;75329.41;;;-144.09;67.19
8890;BME280;4481;43.406;24.454;2022-08-02T05:09:12;75333.59;;;-144.09;67.04
8890;BME280;4481;43.406;24.454;2022-08-02T05:11:38;75348.22;;;-144.09;66.77
8890;BME280;4481;43.406;24.454;2022-08-02T05:14:04;75344.03;;;-144.09;66.84
8890;BME280;4481;43.406;24.454;2022-08-02T05:16:30;75321.06;;;-144.09;66.39
8890;BME280;4481;43.406;24.454;2022-08-02T05:18:57;75302.25;;;-144.09;65.44
8890;BME280;4481;43.406;24.454;2022-08-02T05:21:23;75287.63;;;-144.09;64.06
8890;BME280;4481;43.406;24.454;2022-08-02T05:23:49;75270.91;;;-144.09;63.82
8890;BME280;4481;43.406;24.454;2022-08-02T05:26:16;75231.22;;;-144.09;62.29
8890;BME280;4481;43.406;24.454;2022-08-02T05:28:42;75231.22;;;-144.09;62.13
8890;BME280;4481;43.406;24.454;2022-08-02T05:31:08;75208.25;;;-144.09;61.40
8890;BME280;4481;43.406;24.454;2022-08-02T05:33:35;75202.00;;;-144.09;61.11
8890;BME280;4481;43.406;24.454;2022-08-02T05:36:01;75179.00;;;-144.09;60.51
8890;BME280;4481;43.406;24.454;2022-08-02T05:38:27;75151.84;;;-144.09;59.38
8890;BME280;4481;43.406;24.454;2022-08-02T05:40:55;75110.09;;;-144.09;58.72
8890;BME280;4481;43.406;24.454;2022-08-02T05:43:22;75093.38;;;-144.09;58.33
8890;BME280;4481;43.406;24.454;2022-08-02T05:45:48;75055.78;;;-144.09;56.94
8890;BME280;4481;43.406;24.454;2022-08-02T05:48:15;75039.06;;;-144.09;56.61
8890;BME280;4481;43.406;24.454;2022-08-02T05:50:44;75014.00;;;-144.09;56.19
8890;BME280;4481;43.406;24.454;2022-08-02T05:53:18;74997.31;;;-144.09;55.21
8890;BME280;4481;43.406;24.454;2022-08-02T05:55:56;74968.06;;;-144.09;55.25
8890;BME280;4481;43.406;24.454;2022-08-02T05:58:32;74957.63;;;-144.09;55.20
8890;BME280;4481;43.406;24.454;2022-08-02T06:01:02;74920.03;;;-144.09;54.49
8890;BME280;4481;43.406;24.454;2022-08-02T06:03:31;74932.56;;;-144.09;53.83
8890;BME280;4481;43.406;24.454;2022-08-02T06:06:05;74882.44;;;-144.09;52.95
8890;BME280;4481;43.406;24.454;2022-08-02T06:08:37;74865.72;;;-144.09;52.39
8890;BME280;4481;43.406;24.454;2022-08-02T06:11:05;74828.13;;;-144.09;51.34
8890;BME280;4481;43.406;24.454;2022-08-02T06:13:32;74853.19;;;-144.09;51.76
8890;BME280;4481;43.406;24.454;2022-08-02T06:15:59;74819.78;;;-144.09;50.76
8890;BME280;4481;43.406;24.454;2022-08-02T06:18:26;74828.13;;;-144.09;50.66
8890;BME280;4481;43.406;24.454;2022-08-02T06:20:56;74821.88;;;-144.09;50.86
8890;BME280;4481;43.406;24.454;2022-08-02T06:23:25;74800.97;;;-144.09;50.52
8890;BME280;4481;43.406;24.454;2022-08-02T06:25:52;74800.97;;;-144.09;50.23
8890;BME280;4481;43.406;24.454;2022-08-02T06:28:19;74780.09;;;-144.09;49.96
8890;BME280;4481;43.406;24.454;2022-08-02T06:30:46;74782.19;;;-144.09;49.45
8890;BME280;4481;43.406;24.454;2022-08-02T06:33:12;74805.16;;;-144.09;49.32
8890;BME280;4481;43.406;24.454;2022-08-02T06:35:43;74763.38;;;-144.09;48.29
8890;BME280;4481;43.406;24.454;2022-08-02T06:38:16;74771.75;;;-144.09;48.91
8890;BME280;4481;43.406;24.454;2022-08-02T06:40:47;74765.47;;;-144.09;48.49
8890;BME280;4481;43.406;24.454;2022-08-02T06:43:17;74792.63;;;-144.09;48.78
8890;BME280;4481;43.406;24.454;2022-08-02T06:45:47;74817.69;;;-144.09;49.02
8890;BME280;4481;43.406;24.454;2022-08-02T06:48:14;74788.44;;;-144.09;47.75
8890;BME280;4481;43.406;24.454;2022-08-02T06:50:40;74759.22;;;-144.09;47.54
8890;BME280;4481;43.406;24.454;2022-08-02T06:53:09;74763.38;;;-144.09;47.55
8890;BME280;4481;43.406;24.454;2022-08-02T06:55:36;74769.66;;;-144.09;47.93
8890;BME280;4481;43.406;24.454;2022-08-02T06:58:02;74746.69;;;-144.09;47.16
8890;BME280;4481;43.406;24.454;2022-08-02T07:00:30;74746.69;;;-144.09;47.16
8890;BME280;4481;43.406;24.454;2022-08-02T07:02:57;74746.69;;;-144.09;46.62
8890;BME280;4481;43.406;24.454;2022-08-02T07:05:23;74746.69;;;-144.09;47.37
8890;BME280;4481;43.406;24.454;2022-08-02T07:07:49;74721.63;;;-144.09;46.32
8890;BME280;4481;43.406;24.454;2022-08-02T07:10:16;74694.47;;;-144.09;45.82
8890;BME280;4481;43.406;24.454;2022-08-02T07:12:42;74673.59;;;-144.09;45.25
8890;BME280;4481;43.406;24.454;2022-08-02T07:15:09;74646.44;;;-144.09;44.76
8890;BME280;4481;43.406;24.454;2022-08-02T07:17:37;74663.13;;;-144.09;44.61
8890;BME280;4481;43.406;24.454;2022-08-02T07:20:06;74654.78;;;-144.09;44.47
8890;BME280;4481;43.406;24.454;2022-08-02T07:22:32;74675.66;;;-144.09;45.25
8890;BME280;4481;43.406;24.454;2022-08-02T07:25:00;74688.19;;;-144.09;45.73
8890;BME280;4481;43.406;24.454;2022-08-02T07:27:27;74654.78;;;-144.09;45.07
8890;BME280;4481;43.406;24.454;2022-08-02T07:29:54;74642.25;;;-144.09;44.22
8890;BME280;4481;43.406;24.454;2022-08-02T07:32:22;74615.09;;;-144.09;43.69
8890;BME280;4481;43.406;24.454;2022-08-02T07:34:49;74598.41;;;-144.09;43.66
8890;BME280;4481;43.406;24.454;2022-08-02T07:37:16;74575.44;;;-144.09;43.71
8890;BME280;4481;43.406;24.454;2022-08-02T07:39:42;74598.41;;;-144.09;43.11
8890;BME280;4481;43.406;24.454;2022-08-02T07:42:09;74602.56;;;-144.09;43.71
8890;BME280;4481;43.406;24.454;2022-08-02T07:44:35;74581.69;;;-144.09;43.10
8890;BME280;4481;43.406;24.454;2022-08-02T07:47:02;74533.66;;;-144.09;42.17
8890;BME280;4481;43.406;24.454;2022-08-02T07:49:28;74516.94;;;-144.09;41.91
8890;BME280;4481;43.406;24.454;2022-08-02T07:51:55;74533.66;;;-144.09;41.69
8890;BME280;4481;43.406;24.454;2022-08-02T07:54:23;74544.09;;;-144.09;42.08
8890;BME280;4481;43.406;24.454;2022-08-02T07:56:49;74510.69;;;-144.09;41.87
8890;BME280;4481;43.406;24.454;2022-08-02T07:59:17;74502.34;;;-144.09;41.33
8890;BME280;4481;43.406;24.454;2022-08-02T08:01:44;74523.22;;;-144.09;41.08
8890;BME280;4481;43.406;24.454;2022-08-02T08:04:10;74531.56;;;-144.09;41.53
8890;BME280;4481;43.406;24.454;2022-08-02T08:06:36;74527.41;;;-144.09;41.08
8890;BME280;4481;43.406;24.454;2022-08-02T08:09:03;74506.50;;;-144.09;40.65
8890;BME280;4481;43.406;24.454;2022-08-02T08:11:29;74519.03;;;-144.09;41.00
8890;BME280;4481;43.406;24.454;2022-08-02T08:13:56;74491.91;;;-144.09;40.19
8890;BME280;4481;43.406;24.454;2022-08-02T08:16:22;74485.63;;;-144.09;40.12
8890;BME280;4481;43.406;24.454;2022-08-02T08:18:50;74473.09;;;-144.09;40.06
8890;BME280;4481;43.406;24.454;2022-08-02T08:21:17;74466.84;;;-144.09;39.98
8890;BME280;4481;43.406;24.454;2022-08-02T08:23:43;74433.41;;;-144.09;39.60
8890;BME280;4481;43.406;24.454;2022-08-02T08:26:09;74454.31;;;-144.09;39.03
8890;BME280;4481;43.406;24.454;2022-08-02T08:28:36;74471.00;;;-144.09;39.16
8890;BME280;4481;43.406;24.454;2022-08-02T08:31:03;74458.47;;;-144.09;39.13
8890;BME280;4481;43.406;24.454;2022-08-02T08:33:29;74439.69;;;-144.09;38.98
8890;BME280;4481;43.406;24.454;2022-08-02T08:35:56;74462.66;;;-144.09;39.30
8890;BME280;4481;43.406;24.454;2022-08-02T08:38:22;74445.94;;;-144.09;39.18
8890;BME280;4481;43.406;24.454;2022-08-02T08:40:49;74429.25;;;-144.09;38.75
8890;BME280;4481;43.406;24.454;2022-08-02T08:43:15;74435.50;;;-144.09;38.03
8890;BME280;4481;43.406;24.454;2022-08-02T08:45:43;74422.97;;;-144.09;38.44
8890;BME280;4481;43.406;24.454;2022-08-02T08:48:11;74425.06;;;-144.09;37.93
8890;BME280;4481;43.406;24.454;2022-08-02T08:50:46;74406.28;;;-144.09;37.45
8890;BME280;4481;43.406;24.454;2022-08-02T08:53:14;74397.91;;;-144.09;37.16
8890;BME280;4481;43.406;24.454;2022-08-02T08:55:40;74418.81;;;-144.09;37.31
8890;BME280;4481;43.406;24.454;2022-08-02T08:58:07;74422.97;;;-144.09;36.75
8890;BME280;4481;43.406;24.454;2022-08-02T09:00:35;74450.13;;;-144.09;36.87
8890;BME280;4481;43.406;24.454;2022-08-02T09:03:02;74462.66;;;-144.09;38.47
8890;BME280;4481;43.406;24.454;2022-08-02T09:05:28;74450.13;;;-144.09;38.17
8890;BME280;4481;43.406;24.454;2022-08-02T09:07:55;74460.56;;;-144.09;37.67
8890;BME280;4481;43.406;24.454;2022-08-02T09:10:34;74466.84;;;-144.09;38.42
8890;BME280;4481;43.406;24.454;2022-08-02T09:13:06;74481.44;;;-144.09;39.14
8890;BME280;4481;43.406;24.454;2022-08-02T09:15:33;74475.19;;;-144.09;39.48
8890;BME280;4481;43.406;24.454;2022-08-02T09:17:59;74477.28;;;-144.09;38.61
8890;BME280;4481;43.406;24.454;2022-08-02T09:20:26;74471.00;;;-144.09;38.53
8890;BME280;4481;43.406;24.454;2022-08-02T09:23:04;74468.91;;;-144.09;39.67
8890;BME280;4481;43.406;24.454;2022-08-02T09:25:31;74462.66;;;-144.09;38.00
8890;BME280;4481;43.406;24.454;2022-08-02T09:27:58;74466.84;;;-144.09;38.96
8890;BME280;4481;43.406;24.454;2022-08-02T09:30:25;74485.63;;;-144.09;39.09
8890;BME280;4481;43.406;24.454;2022-08-02T09:32:52;74483.53;;;-144.09;39.48
8890;BME280;4481;43.406;24.454;2022-08-02T09:35:32;74483.53;;;-144.09;39.35
8890;BME280;4481;43.406;24.454;2022-08-02T09:38:07;74477.28;;;-144.09;38.70
8890;BME280;4481;43.406;24.454;2022-08-02T09:40:35;74477.28;;;-144.09;39.15
8890;BME280;4481;43.406;24.454;2022-08-02T09:43:01;74479.38;;;-144.09;37.75
8890;BME280;4481;43.406;24.454;2022-08-02T09:45:29;74493.97;;;-144.09;38.17
8890;BME280;4481;43.406;24.454;2022-08-02T09:47:56;74523.22;;;-144.09;38.62
8890;BME280;4481;43.406;24.454;2022-08-02T09:50:23;74552.47;;;-144.09;39.57
8890;BME280;4481;43.406;24.454;2022-08-02T09:52:50;74560.81;;;-144.09;39.19
8890;BME280;4481;43.406;24.454;2022-08-02T09:55:16;74537.84;;;-144.09;38.70
8890;BME280;4481;43.406;24.454;2022-08-02T09:57:42;74535.75;;;-144.09;40.15
8890;BME280;4481;43.406;24.454;2022-08-02T10:00:09;74533.66;;;-144.09;40.99
8890;BME280;4481;43.406;24.454;2022-08-02T10:02:36;74533.66;;;-144.09;39.47
8890;BME280;4481;43.406;24.454;2022-08-02T10:05:02;74539.94;;;-144.09;39.21
8890;BME280;4481;43.406;24.454;2022-08-02T10:07:28;74592.13;;;-144.09;39.72
8890;BME280;4481;43.406;24.454;2022-08-02T10:09:56;74658.97;;;-144.09;41.56
8890;BME280;4481;43.406;24.454;2022-08-02T10:12:23;74690.28;;;-144.09;41.21
8890;BME280;4481;43.406;24.454;2022-08-02T10:14:50;74702.81;;;-144.09;41.75
8890;BME280;4481;43.406;24.454;2022-08-02T10:17:17;74738.31;;;-144.09;42.96
8890;BME280;4481;43.406;24.454;2022-08-02T10:19:44;74732.06;;;-144.09;42.24
8890;BME280;4481;43.406;24.454;2022-08-02T10:22:13;74738.31;;;-144.09;42.96
8890;BME280;4481;43.406;24.454;2022-08-02T10:24:41;74746.69;;;-144.09;42.86
8890;BME280;4481;43.406;24.454;2022-08-02T10:27:13;74709.09;;;-144.09;42.76
8890;BME280;4481;43.406;24.454;2022-08-02T10:29:42;74650.59;;;-144.09;44.03
8890;BME280;4481;43.406;24.454;2022-08-02T10:32:12;74613.00;;;-144.09;42.77
8890;BME280;4481;43.406;24.454;2022-08-02T10:34:44;74550.38;;;-144.09;41.64
8890;BME280;4481;43.406;24.454;2022-08-02T10:37:12;74489.81;;;-144.09;40.54
8890;BME280;4481;43.406;24.454;2022-08-02T10:39:39;74450.13;;;-144.09;39.84
8890;BME280;4481;43.406;24.454;2022-08-02T10:42:05;74427.16;;;-144.09;39.45
8890;BME280;4481;43.406;24.454;2022-08-02T10:44:33;74402.09;;;-144.09;38.25
8890;BME280;4481;43.406;24.454;2022-08-02T10:47:19;74393.75;;;-144.09;36.06
8890;BME280;4481;43.406;24.454;2022-08-02T10:49:50;74397.91;;;-144.09;36.07
8890;BME280;4481;43.406;24.454;2022-08-02T10:52:17;74316.47;;;-144.09;35.87
8890;BME280;4481;43.406;24.454;2022-08-02T10:54:47;74270.53;;;-144.09;35.35
8890;BME280;4481;43.406;24.454;2022-08-02T10:57:18;74224.59;;;-144.09;35.43
8890;BME280;4481;43.406;24.454;2022-08-02T10:59:47;74232.94;;;-144.09;34.21
8890;BME280;4481;43.406;24.454;2022-08-02T11:02:32;74232.94;;;-144.09;33.41
8890;BME280;4481;43.406;24.454;2022-08-02T11:05:11;74226.69;;;-144.09;33.75
8890;BME280;4481;43.406;24.454;2022-08-02T11:07:39;74245.47;;;-144.09;34.29
8890;BME280;4481;43.406;24.454;2022-08-02T11:10:36;74258.00;;;-144.09;34.29
8890;BME280;4481;43.406;24.454;2022-08-02T11:13:08;74212.06;;;-144.09;34.15
8890;BME280;4481;43.406;24.454;2022-08-02T11:15:53;74170.31;;;-144.09;33.25
8890;BME280;4481;43.406;24.454;2022-08-02T11:18:21;74218.34;;;-144.09;32.67
8890;BME280;4481;43.406;24.454;2022-08-02T11:23:49;74216.25;;;-144.09;33.76
8890;BME280;4481;43.406;24.454;2022-08-02T11:26:43;74214.16;;;-144.09;33.36
8890;BME280;4481;43.406;24.454;2022-08-02T11:29:10;74226.69;;;-144.09;33.35
8890;BME280;4481;43.406;24.454;2022-08-02T11:31:42;74243.41;;;-144.09;32.47
8890;BME280;4481;43.406;24.454;2022-08-02T11:34:09;74251.75;;;-144.09;33.41
8890;BME280;4481;43.406;24.454;2022-08-02T11:36:46;74258.00;;;-144.09;34.35
8890;BME280;4481;43.406;24.454;2022-08-02T11:39:14;74293.50;;;-144.09;34.01
8890;BME280;4481;43.406;24.454;2022-08-02T11:41:42;74329.00;;;-144.09;34.09
8890;BME280;4481;43.406;24.454;2022-08-02T11:44:08;74345.72;;;-144.09;34.56
8890;BME280;4481;43.406;24.454;2022-08-02T11:46:36;74358.25;;;-144.09;35.02
8890;BME280;4481;43.406;24.454;2022-08-02T11:49:13;74335.28;;;-144.09;34.75
8890;BME280;4481;43.406;24.454;2022-08-02T11:51:50;74314.38;;;-144.09;34.46
8890;BME280;4481;43.406;24.454;2022-08-02T11:54:22;74283.06;;;-144.09;34.07
8890;BME280;4481;43.406;24.454;2022-08-02T11:56:48;74293.50;;;-144.09;33.79
8890;BME280;4481;43.406;24.454;2022-08-02T11:59:15;74276.81;;;-144.09;33.56
8890;BME280;4481;43.406;24.454;2022-08-02T12:01:42;74276.81;;;-144.09;33.00
8890;BME280;4481;43.406;24.454;2022-08-02T12:04:08;74274.72;;;-144.09;32.02
8890;BME280;4481;43.406;24.454;2022-08-02T12:06:35;74276.81;;;-144.09;31.57
8890;BME280;4481;43.406;24.454;2022-08-02T12:09:05;74285.16;;;-144.09;31.59
8890;BME280;4481;43.406;24.454;2022-08-02T12:11:32;74301.88;;;-144.09;32.76
8890;BME280;4481;43.406;24.454;2022-08-02T12:14:01;74283.06;;;-144.09;33.70
8890;BME280;4481;43.406;24.454;2022-08-02T12:16:33;74289.34;;;-144.09;33.46
8890;BME280;4481;43.406;24.454;2022-08-02T12:19:17;74280.97;;;-144.09;33.09
8890;BME280;4481;43.406;24.454;2022-08-02T12:21:45;74291.41;;;-144.09;32.06
8890;BME280;4481;43.406;24.454;2022-08-02T12:24:12;74326.91;;;-144.09;32.91
8890;BME280;4481;43.406;24.454;2022-08-02T12:26:42;74441.78;;;-144.09;33.02
8890;BME280;4481;43.406;24.454;2022-08-02T12:29:09;74450.13;;;-144.09;33.87
8890;BME280;4481;43.406;24.454;2022-08-02T12:31:41;74477.28;;;-144.09;33.94
8890;BME280;4481;43.406;24.454;2022-08-02T12:34:11;74448.03;;;-144.09;34.15
8890;BME280;4481;43.406;24.454;2022-08-02T12:36:41;74422.97;;;-144.09;35.07
8890;BME280;4481;43.406;24.454;2022-08-02T12:39:12;74412.53;;;-144.09;35.17
8890;BME280;4481;43.406;24.454;2022-08-02T12:41:39;74412.53;;;-144.09;35.28
8890;BME280;4481;43.406;24.454;2022-08-02T12:44:14;74418.81;;;-144.09;35.34
8890;BME280;4481;43.406;24.454;2022-08-02T12:46:41;74433.41;;;-144.09;35.98
8890;BME280;4481;43.406;24.454;2022-08-02T12:49:14;74485.63;;;-144.09;35.39
8890;BME280;4481;43.406;24.454;2022-08-02T12:51:40;74529.47;;;-144.09;36.00
8890;BME280;4481;43.406;24.454;2022-08-02T12:54:13;74483.53;;;-144.09;36.79
8890;BME280;4481;43.406;24.454;2022-08-02T12:56:40;74443.88;;;-144.09;36.70
8890;BME280;4481;43.406;24.454;2022-08-02T12:59:06;74395.84;;;-144.09;35.17
8890;BME280;4481;43.406;24.454;2022-08-02T13:01:34;74389.56;;;-144.09;34.88